Time;durP1;ratioP1;P1;durP2;ratioP2;P2;SDS_P1;SDS_P2;PMS_P1;PMS_P2;Temp;Humidity;BMP_temperature;BMP_pressure;BME280_temperature;BME280_humidity;BME280_pressure;Samples;Min_cycle;Max_cycle;Signal;HPM_P1;HPM_P2
2023/06/24 00:00:18;;;;;;;8.10;4.47;;;;;;;;;;4964386;28;20035;-75
2023/06/24 00:02:53;;;;;;;8.77;4.07;;;;;;;;;;4963213;28;20059;-75
2023/06/24 00:05:32;;;;;;;7.15;4.45;;;;;;;;;;4963862;28;20502;-76
2023/06/24 00:08:09;;;;;;;9.98;5.60;;;;;;;;;;4965030;28;20047;-74
2023/06/24 00:10:40;;;;;;;9.75;4.93;;;;;;;;;;4967218;28;20043;-76
2023/06/24 00:13:17;;;;;;;7.07;5.45;;;;;;;;;;4968412;28;20696;-76
2023/06/24 00:15:49;;;;;;;8.63;5.78;;;;;;;;;;4966859;28;20422;-77
2023/06/24 00:18:29;;;;;;;8.90;5.00;;;;;;;;;;4967936;28;20061;-76
2023/06/24 00:21:05;;;;;;;12.40;6.22;;;;;;;;;;4967121;28;20062;-76
2023/06/24 00:23:37;;;;;;;;;;;;;;;;;;4969278;28;20825;-76
2023/06/24 00:26:11;;;;;;;8.55;5.35;;;;;;;;;;4968110;28;19925;-76
2023/06/24 00:28:45;;;;;;;6.65;4.38;;;;;;;;;;4966914;28;20059;-75
2023/06/24 00:31:22;;;;;;;10.35;4.30;;;;;;;;;;4968550;28;20055;-76
2023/06/24 00:33:56;;;;;;;6.45;3.97;;;;;;;;;;4967021;28;20544;-76
2023/06/24 00:36:31;;;;;;;6.88;3.95;;;;;;;;;;4968405;28;20050;-76
2023/06/24 00:39:09;;;;;;;7.70;4.00;;;;;;;;;;4965914;28;20634;-75
2023/06/24 00:41:41;;;;;;;6.32;3.45;;;;;;;;;;4950657;28;20069;-75
2023/06/24 00:44:15;;;;;;;10.07;3.85;;;;;;;;;;4965262;28;20513;-76
2023/06/24 00:46:48;;;;;;;5.68;3.05;;;;;;;;;;4966754;28;20074;-75
2023/06/24 00:49:21;;;;;;;6.60;3.92;;;;;;;;;;4965107;28;20422;-75
2023/06/24 00:51:55;;;;;;;7.07;3.95;;;;;;;;;;4967118;28;20418;-76
2023/06/24 00:54:33;;;;;;;8.65;4.40;;;;;;;;;;4968497;28;20047;-75
2023/06/24 00:57:05;;;;;;;7.30;5.28;;;;;;;;;;4966876;28;20410;-75
2023/06/24 00:59:39;;;;;;;7.80;4.35;;;;;;;;;;4967471;28;20058;-75
2023/06/24 01:02:09;;;;;;;9.45;4.15;;;;;;;;;;4966461;28;20051;-76
2023/06/24 01:04:41;;;;;;;7.47;4.30;;;;;;;;;;4968081;28;20051;-76
2023/06/24 01:07:12;;;;;;;5.30;3.58;;;;;;;;;;4967963;28;20050;-75
2023/06/24 01:09:43;;;;;;;8.88;4.65;;;;;;;;;;4968148;28;20046;-76
2023/06/24 01:12:13;;;;;;;5.65;4.00;;;;;;;;;;4968230;28;20057;-75
2023/06/24 01:14:43;;;;;;;6.72;4.35;;;;;;;;;;4967620;28;20047;-77
2023/06/24 01:17:24;;;;;;;8.10;4.05;;;;;;;;;;4967467;28;20517;-75
2023/06/24 01:20:21;;;;;;;6.13;4.38;;;;;;;;;;4967759;28;20406;-75
2023/06/24 01:23:26;;;;;;;5.55;3.35;;;;;;;;;;4966423;28;20062;-75
2023/06/24 01:26:23;;;;;;;6.35;3.50;;;;;;;;;;4965180;28;20066;-76
2023/06/24 01:29:14;;;;;;;5.95;3.80;;;;;;;;;;4967330;28;20398;-76
2023/06/24 01:31:55;;;;;;;4.07;2.63;;;;;;;;;;4960986;28;20074;-75
2023/06/24 01:34:45;;;;;;;6.07;3.10;;;;;;;;;;4967882;28;20051;-75
2023/06/24 01:37:26;;;;;;;4.55;3.13;;;;;;;;;;4966051;28;20062;-75
2023/06/24 01:40:18;;;;;;;6.22;3.22;;;;;;;;;;4966163;28;20517;-75
2023/06/24 01:42:50;;;;;;;5.38;2.90;;;;;;;;;;4965143;28;20054;-75
2023/06/24 01:45:30;;;;;;;21.67;2.90;;;;;;;;;;4965421;28;20895;-76
2023/06/24 01:48:07;;;;;;;6.00;3.13;;;;;;;;;;4965760;28;20502;-76
2023/06/24 01:50:44;;;;;;;8.15;3.78;;;;;;;;;;4967627;28;20113;-76
2023/06/24 01:53:16;;;;;;;6.00;3.88;;;;;;;;;;4967447;28;20051;-77
2023/06/24 01:55:49;;;;;;;7.70;4.60;;;;;;;;;;4967097;28;20053;-75
2023/06/24 01:58:21;;;;;;;8.23;4.80;;;;;;;;;;4965324;28;20058;-75
2023/06/24 02:00:55;;;;;;;7.60;4.93;;;;;;;;;;4965375;28;20055;-75
2023/06/24 02:03:27;;;;;;;14.02;4.13;;;;;;;;;;4966619;28;20063;-76
2023/06/24 02:06:00;;;;;;;7.75;4.78;;;;;;;;;;4965551;28;20058;-76
2023/06/24 02:08:35;;;;;;;6.57;4.43;;;;;;;;;;4966879;28;20065;-76
2023/06/24 02:11:06;;;;;;;9.00;5.80;;;;;;;;;;4967132;28;20348;-75
2023/06/24 02:13:39;;;;;;;8.98;5.55;;;;;;;;;;4966635;28;20051;-75
2023/06/24 02:16:18;;;;;;;8.43;5.25;;;;;;;;;;4966719;28;20047;-76
2023/06/24 02:18:49;;;;;;;6.45;5.13;;;;;;;;;;4966765;28;20046;-76
2023/06/24 02:21:20;;;;;;;12.68;5.05;;;;;;;;;;4966615;28;20502;-76
2023/06/24 02:23:52;;;;;;;10.00;5.13;;;;;;;;;;4967000;28;20054;-76
2023/06/24 02:26:25;;;;;;;6.63;4.75;;;;;;;;;;4965409;28;20059;-76
2023/06/24 02:28:56;;;;;;;10.45;4.90;;;;;;;;;;4965142;28;20054;-76
2023/06/24 02:31:27;;;;;;;5.82;3.88;;;;;;;;;;4966979;28;20049;-75
2023/06/24 02:33:58;;;;;;;7.57;3.70;;;;;;;;;;4964552;28;20427;-75
2023/06/24 02:36:30;;;;;;;8.15;3.75;;;;;;;;;;4966245;28;20054;-76
2023/06/24 02:39:00;;;;;;;9.05;4.72;;;;;;;;;;4964326;28;20051;-75
2023/06/24 02:41:30;;;;;;;7.45;5.80;;;;;;;;;;4963959;28;20058;-75
2023/06/24 02:44:01;;;;;;;7.53;5.18;;;;;;;;;;4964675;28;20082;-76
2023/06/24 02:46:34;;;;;;;10.88;4.75;;;;;;;;;;4964772;28;20054;-76
2023/06/24 02:49:05;;;;;;;6.45;4.93;;;;;;;;;;4966287;28;20050;-74
2023/06/24 02:51:37;;;;;;;7.30;4.47;;;;;;;;;;4965190;28;20069;-74
2023/06/24 02:54:09;;;;;;;8.20;5.05;;;;;;;;;;4963909;28;20058;-74
2023/06/24 02:57:07;;;;;;;6.07;4.25;;;;;;;;;;4965793;28;20059;-75
2023/06/24 03:00:17;;;;;;;7.93;4.65;;;;;;;;;;4914883;29;20431;-75
2023/06/24 03:03:07;;;;;;;8.82;3.92;;;;;;;;;;4918511;29;20066;-74
2023/06/24 03:06:12;;;;;;;9.35;4.43;;;;;;;;;;4952620;28;20051;-75
2023/06/24 03:08:43;;;;;;;7.25;4.00;;;;;;;;;;4964605;28;20054;-75
2023/06/24 03:11:14;;;;;;;7.65;3.50;;;;;;;;;;4949043;28;20419;-75
2023/06/24 03:13:44;;;;;;;11.52;3.22;;;;;;;;;;4965727;28;20062;-75
2023/06/24 03:16:30;;;;;;;6.60;4.20;;;;;;;;;;4964453;28;20062;-75
2023/06/24 03:19:17;;;;;;;5.97;2.65;;;;;;;;;;4965011;28;20074;-75
2023/06/24 03:21:46;;;;;;;3.63;2.80;;;;;;;;;;4966362;28;20775;-75
2023/06/24 03:24:17;;;;;;;6.72;2.83;;;;;;;;;;4964515;28;20050;-75
2023/06/24 03:26:56;;;;;;;5.43;3.03;;;;;;;;;;4964339;28;20054;-74
2023/06/24 03:29:35;;;;;;;4.88;3.05;;;;;;;;;;4964348;28;20062;-75
2023/06/24 03:32:12;;;;;;;5.43;2.67;;;;;;;;;;4964288;28;20061;-75
2023/06/24 03:34:43;;;;;;;8.68;3.03;;;;;;;;;;4964164;28;20070;-75
2023/06/24 03:37:15;;;;;;;3.60;2.58;;;;;;;;;;4964078;28;20055;-75
2023/06/24 03:39:48;;;;;;;4.05;2.85;;;;;;;;;;4949432;28;20422;-75
2023/06/24 03:42:19;;;;;;;3.88;2.50;;;;;;;;;;4964699;28;20729;-75
2023/06/24 03:44:49;;;;;;;10.82;3.20;;;;;;;;;;4967917;28;20051;-75
2023/06/24 03:47:21;;;;;;;3.55;2.05;;;;;;;;;;4967216;28;20529;-75
2023/06/24 03:49:53;;;;;;;4.28;2.05;;;;;;;;;;4967469;28;20065;-75
2023/06/24 03:52:23;;;;;;;5.57;3.10;;;;;;;;;;4967491;28;20051;-75
2023/06/24 03:54:53;;;;;;;4.05;2.17;;;;;;;;;;4967619;28;20063;-75
2023/06/24 03:57:23;;;;;;;5.25;2.33;;;;;;;;;;4969644;28;20054;-75
2023/06/24 03:59:53;;;;;;;7.60;2.58;;;;;;;;;;4969445;28;20767;-74
2023/06/24 04:02:25;;;;;;;4.72;2.35;;;;;;;;;;4969061;28;20054;-75
2023/06/24 04:04:58;;;;;;;8.23;2.25;;;;;;;;;;4952813;28;20054;-74
2023/06/24 04:07:32;;;;;;;5.47;2.55;;;;;;;;;;4967666;28;20059;-75
2023/06/24 04:10:08;;;;;;;5.22;2.30;;;;;;;;;;4967055;28;20054;-75
2023/06/24 04:12:39;;;;;;;3.60;2.40;;;;;;;;;;4968003;28;20047;-75
2023/06/24 04:15:10;;;;;;;6.38;2.22;;;;;;;;;;4968961;28;20522;-76
2023/06/24 04:17:40;;;;;;;2.78;2.00;;;;;;;;;;4967239;28;20659;-75
2023/06/24 04:20:11;;;;;;;6.28;2.38;;;;;;;;;;4967229;28;20062;-76
2023/06/24 04:22:43;;;;;;;5.55;2.25;;;;;;;;;;4967315;28;20058;-74
2023/06/24 04:25:13;;;;;;;5.53;2.55;;;;;;;;;;4967001;28;20047;-75
2023/06/24 04:27:43;;;;;;;3.13;2.50;;;;;;;;;;4968743;28;20043;-75
2023/06/24 04:30:14;;;;;;;4.55;2.30;;;;;;;;;;4966796;28;20057;-74
2023/06/24 04:32:45;;;;;;;3.55;2.15;;;;;;;;;;4967191;28;20055;-76
2023/06/24 04:35:15;;;;;;;5.95;1.98;;;;;;;;;;4966611;28;20083;-74
2023/06/24 04:37:46;;;;;;;4.35;2.15;;;;;;;;;;4951114;28;20055;-75
2023/06/24 04:40:18;;;;;;;3.97;2.03;;;;;;;;;;4968313;28;20065;-76
2023/06/24 04:42:50;;;;;;;8.95;2.67;;;;;;;;;;4968654;28;20810;-75
2023/06/24 04:45:20;;;;;;;6.30;2.08;;;;;;;;;;4968975;28;20109;-76
2023/06/24 04:47:52;;;;;;;2.45;1.75;;;;;;;;;;4968486;28;20050;-75
2023/06/24 04:50:23;;;;;;;5.15;2.38;;;;;;;;;;4968114;28;20418;-75
2023/06/24 04:52:56;;;;;;;5.35;1.90;;;;;;;;;;4967909;28;20049;-76
2023/06/24 04:55:29;;;;;;;3.90;1.80;;;;;;;;;;4967925;28;20051;-76
2023/06/24 04:58:00;;;;;;;6.25;2.33;;;;;;;;;;4968677;28;20046;-75
2023/06/24 05:00:32;;;;;;;5.07;1.95;;;;;;;;;;4968579;28;20055;-75
2023/06/24 05:03:03;;;;;;;4.72;1.67;;;;;;;;;;4968412;28;20042;-75
2023/06/24 05:05:33;;;;;;;10.13;2.58;;;;;;;;;;4967990;28;20061;-74
2023/06/24 05:08:04;;;;;;;8.10;2.35;;;;;;;;;;4967748;28;20489;-74
2023/06/24 05:10:35;;;;;;;2.22;1.85;;;;;;;;;;4968157;28;20059;-74
2023/06/24 05:13:05;;;;;;;3.88;2.05;;;;;;;;;;4968207;28;20046;-76
2023/06/24 05:15:36;;;;;;;4.20;1.73;;;;;;;;;;4968095;28;20062;-75
2023/06/24 05:18:07;;;;;;;2.80;1.95;;;;;;;;;;4968202;28;20413;-74
2023/06/24 05:20:38;;;;;;;4.00;1.85;;;;;;;;;;4967956;28;20434;-75
2023/06/24 05:23:09;;;;;;;2.75;1.63;;;;;;;;;;4967727;28;20042;-75
2023/06/24 05:25:38;;;;;;;4.20;2.05;;;;;;;;;;4968164;28;20049;-75
2023/06/24 05:28:09;;;;;;;2.55;1.77;;;;;;;;;;4967620;28;20047;-75
2023/06/24 05:30:41;;;;;;;3.03;2.00;;;;;;;;;;4967901;28;20054;-76
2023/06/24 05:33:12;;;;;;;3.47;1.95;;;;;;;;;;4967941;28;20046;-75
2023/06/24 05:35:44;;;;;;;5.85;2.05;;;;;;;;;;4967407;28;20047;-75
2023/06/24 05:38:15;;;;;;;2.67;2.00;;;;;;;;;;4967541;28;20401;-75
2023/06/24 05:40:47;;;;;;;7.05;2.17;;;;;;;;;;4967528;28;20057;-74
2023/06/24 05:43:18;;;;;;;2.92;1.77;;;;;;;;;;4967275;28;20054;-75
2023/06/24 05:45:48;;;;;;;3.22;1.85;;;;;;;;;;4967513;28;20051;-75
2023/06/24 05:48:18;;;;;;;3.20;1.80;;;;;;;;;;4967522;28;20051;-76
2023/06/24 05:50:48;;;;;;;3.75;1.75;;;;;;;;;;4967558;28;20549;-76
2023/06/24 05:53:18;;;;;;;5.32;1.83;;;;;;;;;;4967104;28;20046;-74
2023/06/24 05:55:49;;;;;;;1.90;1.55;;;;;;;;;;4967490;28;20053;-75
2023/06/24 05:58:20;;;;;;;5.60;1.58;;;;;;;;;;4966869;28;20051;-76
2023/06/24 06:00:50;;;;;;;9.93;2.10;;;;;;;;;;4966964;28;20051;-76
2023/06/24 06:03:20;;;;;;;2.00;1.60;;;;;;;;;;4965590;28;20065;-75
2023/06/24 06:05:50;;;;;;;2.92;1.58;;;;;;;;;;4967062;28;20528;-75
2023/06/24 06:08:22;;;;;;;2.60;1.83;;;;;;;;;;4964680;28;20482;-75
2023/06/24 06:10:53;;;;;;;3.95;1.65;;;;;;;;;;4965623;28;20557;-75
2023/06/24 06:13:22;;;;;;;5.75;1.48;;;;;;;;;;4966544;28;20051;-75
2023/06/24 06:15:53;;;;;;;2.88;1.65;;;;;;;;;;4965619;28;20086;-75
2023/06/24 06:18:25;;;;;;;2.83;1.83;;;;;;;;;;4966577;28;20047;-74
2023/06/24 06:20:57;;;;;;;2.30;1.60;;;;;;;;;;4966771;28;20070;-75
2023/06/24 06:23:27;;;;;;;5.22;1.67;;;;;;;;;;4966823;28;20046;-76
2023/06/24 06:25:58;;;;;;;4.05;1.63;;;;;;;;;;4966770;28;20050;-74
2023/06/24 06:28:27;;;;;;;3.15;1.73;;;;;;;;;;4966298;28;20058;-75
2023/06/24 06:30:58;;;;;;;2.80;2.05;;;;;;;;;;4966586;28;20046;-74
2023/06/24 06:33:29;;;;;;;6.90;1.70;;;;;;;;;;4966518;28;20058;-75
2023/06/24 06:36:00;;;;;;;5.40;1.73;;;;;;;;;;4966531;28;20051;-75
2023/06/24 06:38:29;;;;;;;2.38;1.63;;;;;;;;;;4966832;28;20043;-75
2023/06/24 06:41:00;;;;;;;2.60;1.73;;;;;;;;;;4966629;28;20058;-75
2023/06/24 06:43:31;;;;;;;2.22;1.70;;;;;;;;;;4965428;28;20042;-76
2023/06/24 06:46:01;;;;;;;3.50;1.90;;;;;;;;;;4964695;28;20047;-75
2023/06/24 06:48:31;;;;;;;3.40;1.98;;;;;;;;;;4964149;28;20433;-74
2023/06/24 06:51:02;;;;;;;1.92;1.60;;;;;;;;;;4964950;28;20521;-75
2023/06/24 06:53:31;;;;;;;2.30;1.60;;;;;;;;;;4965955;28;20043;-74
2023/06/24 06:56:05;;;;;;;3.63;1.58;;;;;;;;;;4966588;28;20054;-74
2023/06/24 06:58:35;;;;;;;3.95;2.00;;;;;;;;;;4966865;28;20071;-74
2023/06/24 07:01:05;;;;;;;2.53;1.77;;;;;;;;;;4965536;28;20065;-76
2023/06/24 07:03:36;;;;;;;4.88;1.70;;;;;;;;;;4966472;28;20529;-75
2023/06/24 07:06:06;;;;;;;3.03;1.60;;;;;;;;;;4965840;28;20043;-75
2023/06/24 07:08:37;;;;;;;5.68;2.17;;;;;;;;;;4966311;28;20387;-75
2023/06/24 07:11:06;;;;;;;4.50;1.60;;;;;;;;;;4966061;28;20058;-74
2023/06/24 07:13:37;;;;;;;3.35;1.67;;;;;;;;;;4964361;28;20059;-75
2023/06/24 07:16:07;;;;;;;2.00;1.42;;;;;;;;;;4966505;28;20057;-75
2023/06/24 07:18:39;;;;;;;2.45;1.67;;;;;;;;;;4966078;28;20054;-74
2023/06/24 07:21:09;;;;;;;5.50;1.52;;;;;;;;;;4970125;28;20517;-79
2023/06/24 07:23:39;;;;;;;7.32;1.90;;;;;;;;;;4969810;28;20057;-75
2023/06/24 07:26:09;;;;;;;4.45;1.40;;;;;;;;;;4970037;28;20047;-76
2023/06/24 07:28:39;;;;;;;2.20;1.73;;;;;;;;;;4970411;28;20054;-75
2023/06/24 07:31:11;;;;;;;2.20;1.33;;;;;;;;;;4970061;28;20047;-75
2023/06/24 07:33:41;;;;;;;4.75;1.63;;;;;;;;;;4970091;28;20047;-76
2023/06/24 07:36:13;;;;;;;4.75;2.05;;;;;;;;;;4970000;28;20444;-74
2023/06/24 07:38:43;;;;;;;7.88;1.60;;;;;;;;;;4968560;28;20058;-75
2023/06/24 07:41:16;;;;;;;7.40;1.80;;;;;;;;;;4969414;28;20050;-74
2023/06/24 07:43:47;;;;;;;4.25;2.00;;;;;;;;;;4969342;28;20395;-75
2023/06/24 07:46:18;;;;;;;3.38;1.50;;;;;;;;;;4969777;28;20054;-76
2023/06/24 07:48:48;;;;;;;5.15;1.63;;;;;;;;;;4969726;28;20490;-75
2023/06/24 07:51:19;;;;;;;3.15;1.42;;;;;;;;;;4970006;28;20501;-74
2023/06/24 07:53:50;;;;;;;1.80;1.40;;;;;;;;;;4969132;28;20046;-75
2023/06/24 07:56:20;;;;;;;4.22;1.45;;;;;;;;;;4968992;28;20496;-74
2023/06/24 07:58:50;;;;;;;6.40;1.73;;;;;;;;;;4969469;28;20043;-75
2023/06/24 08:01:19;;;;;;;2.13;1.45;;;;;;;;;;4969381;28;20046;-75
2023/06/24 08:03:51;;;;;;;6.50;2.03;;;;;;;;;;4969176;28;20051;-74
2023/06/24 08:06:22;;;;;;;6.40;2.15;;;;;;;;;;4969878;28;20621;-75
2023/06/24 08:08:53;;;;;;;6.97;1.85;;;;;;;;;;4969754;28;20047;-75
2023/06/24 08:11:23;;;;;;;4.10;2.03;;;;;;;;;;4969176;28;20039;-74
2023/06/24 08:13:54;;;;;;;7.00;2.33;;;;;;;;;;4968440;28;20518;-82
2023/06/24 08:16:25;;;;;;;5.88;2.05;;;;;;;;;;4969528;28;20050;-74
2023/06/24 08:18:55;;;;;;;3.90;2.53;;;;;;;;;;4968674;28;20047;-74
2023/06/24 08:21:27;;;;;;;4.38;2.08;;;;;;;;;;4969257;28;20047;-75
2023/06/24 08:23:57;;;;;;;4.85;1.90;;;;;;;;;;4968797;28;20050;-74
2023/06/24 08:26:28;;;;;;;3.65;2.90;;;;;;;;;;4969386;28;20528;-75
2023/06/24 08:28:59;;;;;;;5.90;4.05;;;;;;;;;;4968645;28;20051;-74
2023/06/24 08:31:32;;;;;;;5.53;4.55;;;;;;;;;;4967660;28;20055;-74
2023/06/24 08:34:03;;;;;;;6.05;2.70;;;;;;;;;;4968642;28;20059;-75
2023/06/24 08:36:34;;;;;;;3.78;2.17;;;;;;;;;;4968938;28;20061;-77
2023/06/24 08:39:04;;;;;;;6.35;2.33;;;;;;;;;;4968569;28;20082;-75
2023/06/24 08:41:34;;;;;;;5.72;2.60;;;;;;;;;;4968707;28;20525;-75
2023/06/24 08:44:05;;;;;;;4.18;2.78;;;;;;;;;;4968366;28;20521;-76
2023/06/24 08:46:36;;;;;;;2.75;1.92;;;;;;;;;;4968918;28;20051;-75
2023/06/24 08:49:22;;;;;;;5.45;1.85;;;;;;;;;;4968501;28;20043;-75
2023/06/24 08:52:16;;;;;;;3.28;1.77;;;;;;;;;;4968337;28;20058;-75
2023/06/24 08:54:50;;;;;;;6.55;2.95;;;;;;;;;;4968450;28;20042;-74
2023/06/24 08:57:21;;;;;;;4.43;1.70;;;;;;;;;;4968742;28;20050;-75
2023/06/24 08:59:52;;;;;;;3.33;1.80;;;;;;;;;;4967530;28;20050;-75
2023/06/24 09:02:23;;;;;;;5.43;1.98;;;;;;;;;;4967982;28;20051;-75
2023/06/24 09:04:53;;;;;;;4.13;2.15;;;;;;;;;;4968555;28;20061;-76
2023/06/24 09:07:28;;;;;;;2.78;1.83;;;;;;;;;;4967197;28;20055;-75
2023/06/24 09:10:00;;;;;;;7.07;2.15;;;;;;;;;;4968237;28;20057;-74
2023/06/24 09:12:34;;;;;;;3.03;2.03;;;;;;;;;;4968058;28;20050;-76
2023/06/24 09:15:05;;;;;;;5.88;4.25;;;;;;;;;;4968555;28;20395;-76
2023/06/24 09:17:46;;;;;;;7.45;2.97;;;;;;;;;;4968411;28;20053;-76
2023/06/24 09:20:21;;;;;;;2.38;1.65;;;;;;;;;;4967666;28;20059;-75
2023/06/24 09:22:52;;;;;;;3.05;1.65;;;;;;;;;;4967783;28;20050;-76
2023/06/24 09:25:21;;;;;;;4.60;2.95;;;;;;;;;;4967725;28;20062;-75
2023/06/24 09:27:55;;;;;;;9.02;3.40;;;;;;;;;;4967640;28;20453;-75
2023/06/24 09:30:26;;;;;;;5.18;3.58;;;;;;;;;;4968008;28;20043;-76
2023/06/24 09:32:56;;;;;;;9.40;8.15;;;;;;;;;;4968024;28;20046;-75
2023/06/24 09:35:26;;;;;;;7.80;3.15;;;;;;;;;;4967402;28;20053;-75
2023/06/24 09:38:00;;;;;;;3.53;2.20;;;;;;;;;;4967186;28;20055;-75
2023/06/24 09:40:37;;;;;;;5.70;3.40;;;;;;;;;;4967716;28;20046;-75
2023/06/24 09:43:08;;;;;;;3.30;2.30;;;;;;;;;;4967108;28;20051;-75
2023/06/24 09:45:39;;;;;;;3.80;2.30;;;;;;;;;;4967648;28;20043;-76
2023/06/24 09:48:09;;;;;;;4.07;2.63;;;;;;;;;;4967346;28;20513;-75
2023/06/24 09:50:40;;;;;;;4.07;2.30;;;;;;;;;;4964910;28;20062;-75
2023/06/24 09:53:11;;;;;;;2.53;2.00;;;;;;;;;;4967270;28;20054;-75
2023/06/24 09:55:46;;;;;;;2.95;2.38;;;;;;;;;;4965281;28;20177;-75
2023/06/24 09:58:20;;;;;;;3.92;1.90;;;;;;;;;;4967244;28;20061;-75
2023/06/24 10:00:53;;;;;;;4.40;2.00;;;;;;;;;;4967466;28;20051;-75
2023/06/24 10:03:23;;;;;;;3.90;2.60;;;;;;;;;;4965568;28;20430;-75
2023/06/24 10:05:54;;;;;;;5.78;2.15;;;;;;;;;;4967336;28;20521;-75
2023/06/24 10:08:31;;;;;;;2.35;2.00;;;;;;;;;;4966799;28;20533;-75
2023/06/24 10:11:02;;;;;;;3.45;2.05;;;;;;;;;;4966832;28;20058;-74
2023/06/24 10:13:32;;;;;;;3.72;2.67;;;;;;;;;;4966356;28;20054;-74
2023/06/24 10:16:02;;;;;;;4.15;3.40;;;;;;;;;;4967137;28;20051;-75
2023/06/24 10:18:41;;;;;;;4.22;2.55;;;;;;;;;;4966883;28;20046;-75
2023/06/24 10:21:15;;;;;;;2.33;1.90;;;;;;;;;;4967013;28;20049;-75
2023/06/24 10:23:48;;;;;;;2.50;1.35;;;;;;;;;;4964544;28;20541;-75
2023/06/24 10:26:28;;;;;;;5.47;1.60;;;;;;;;;;4966411;28;20050;-76
2023/06/24 10:29:06;;;;;;;3.50;1.55;;;;;;;;;;4966500;28;20502;-75
2023/06/24 10:31:42;;;;;;;5.20;2.08;;;;;;;;;;4966471;28;20441;-77
2023/06/24 10:34:40;;;;;;;2.65;1.40;;;;;;;;;;4966741;28;20048;-76
2023/06/24 10:37:32;;;;;;;3.72;2.13;;;;;;;;;;4966766;28;20054;-75
2023/06/24 10:40:05;;;;;;;2.67;2.03;;;;;;;;;;4966685;28;20525;-75
2023/06/24 10:42:43;;;;;;;3.58;3.20;;;;;;;;;;4965639;28;20043;-76
2023/06/24 10:45:16;;;;;;;4.13;2.08;;;;;;;;;;4966886;28;20061;-74
2023/06/24 10:47:56;;;;;;;3.75;2.70;;;;;;;;;;4966278;28;20050;-75
2023/06/24 10:50:26;;;;;;;4.88;2.53;;;;;;;;;;4966927;28;20054;-76
2023/06/24 10:53:01;;;;;;;5.18;2.13;;;;;;;;;;4966879;28;20051;-74
2023/06/24 10:55:32;;;;;;;;;;;;;;;;;;4965246;28;20061;-76
2023/06/24 10:58:12;;;;;;;2.30;1.77;;;;;;;;;;4966143;28;19926;-75
2023/06/24 11:00:44;;;;;;;2.25;1.75;;;;;;;;;;4966506;28;20414;-77
2023/06/24 11:03:21;;;;;;;6.00;2.45;;;;;;;;;;4966851;28;20410;-76
2023/06/24 11:05:52;;;;;;;5.28;2.20;;;;;;;;;;4966148;28;20409;-75
2023/06/24 11:08:24;;;;;;;3.38;2.00;;;;;;;;;;4964563;28;20061;-76
2023/06/24 11:10:56;;;;;;;4.20;2.17;;;;;;;;;;4966925;28;20047;-76
2023/06/24 11:13:29;;;;;;;8.77;2.97;;;;;;;;;;4965913;28;20062;-77
2023/06/24 11:16:01;;;;;;;5.40;2.63;;;;;;;;;;4965827;28;20047;-75
2023/06/24 11:18:40;;;;;;;2.10;1.90;;;;;;;;;;4966004;28;20059;-75
2023/06/24 11:21:11;;;;;;;3.60;2.20;;;;;;;;;;4966225;28;20050;-77
2023/06/24 11:23:42;;;;;;;4.15;2.53;;;;;;;;;;4966291;28;20054;-75
2023/06/24 11:26:15;;;;;;;3.78;3.05;;;;;;;;;;4964958;28;20059;-76
2023/06/24 11:28:47;;;;;;;4.55;2.45;;;;;;;;;;4964648;28;20054;-75
2023/06/24 11:31:18;;;;;;;2.80;2.40;;;;;;;;;;4965827;28;20054;-76
2023/06/24 11:33:49;;;;;;;2.33;1.73;;;;;;;;;;4965451;28;20071;-75
2023/06/24 11:36:20;;;;;;;3.40;2.20;;;;;;;;;;4965591;28;20417;-76
2023/06/24 11:38:50;;;;;;;2.72;2.00;;;;;;;;;;4965947;28;20414;-75
2023/06/24 11:41:23;;;;;;;2.00;1.73;;;;;;;;;;4965559;28;20047;-75
2023/06/24 11:43:54;;;;;;;3.97;2.33;;;;;;;;;;4965683;28;20046;-76
2023/06/24 11:46:35;;;;;;;2.53;1.58;;;;;;;;;;4966134;28;20043;-75
2023/06/24 11:49:06;;;;;;;3.40;1.58;;;;;;;;;;4965714;28;20043;-78
2023/06/24 11:51:38;;;;;;;3.28;1.58;;;;;;;;;;4965477;28;20046;-76
2023/06/24 11:54:08;;;;;;;9.80;3.00;;;;;;;;;;4965580;28;20587;-75
2023/06/24 11:56:40;;;;;;;8.98;4.20;;;;;;;;;;4965251;28;20055;-76
2023/06/24 11:59:18;;;;;;;8.27;3.38;;;;;;;;;;4965802;28;20414;-75
2023/06/24 12:01:57;;;;;;;3.85;2.53;;;;;;;;;;4965471;28;20046;-75
2023/06/24 12:04:29;;;;;;;4.65;2.67;;;;;;;;;;4966192;28;20630;-76
2023/06/24 12:07:00;;;;;;;9.10;4.65;;;;;;;;;;4968884;28;20051;-75
2023/06/24 12:09:31;;;;;;;12.32;2.58;;;;;;;;;;4969407;28;20062;-75
2023/06/24 12:12:01;;;;;;;4.70;2.95;;;;;;;;;;4969021;28;20341;-75
2023/06/24 12:14:32;;;;;;;4.20;2.53;;;;;;;;;;4968837;28;20066;-75
2023/06/24 12:17:04;;;;;;;4.97;1.95;;;;;;;;;;4968787;28;20050;-74
2023/06/24 12:19:33;;;;;;;9.18;2.97;;;;;;;;;;4969002;28;20046;-74
2023/06/24 12:22:06;;;;;;;5.30;2.70;;;;;;;;;;4968705;28;20422;-75
2023/06/24 12:24:37;;;;;;;8.30;2.88;;;;;;;;;;4968836;28;20043;-75
2023/06/24 12:27:08;;;;;;;12.40;4.00;;;;;;;;;;4969027;28;20422;-74
2023/06/24 12:29:38;;;;;;;8.60;2.95;;;;;;;;;;4969016;28;20054;-76
2023/06/24 12:32:09;;;;;;;4.28;2.55;;;;;;;;;;4968609;28;20058;-76
2023/06/24 12:34:39;;;;;;;4.15;2.30;;;;;;;;;;4968771;28;20054;-77
2023/06/24 12:37:09;;;;;;;4.10;2.15;;;;;;;;;;4968503;28;20046;-74
2023/06/24 12:39:40;;;;;;;9.13;3.38;;;;;;;;;;4968378;28;20418;-76
2023/06/24 12:42:10;;;;;;;11.20;6.72;;;;;;;;;;4968878;28;20115;-77
2023/06/24 12:44:42;;;;;;;12.40;2.60;;;;;;;;;;4969055;28;20047;-75
2023/06/24 12:47:13;;;;;;;4.90;2.42;;;;;;;;;;4968660;28;20050;-76
2023/06/24 12:49:43;;;;;;;4.22;2.53;;;;;;;;;;4968376;28;20051;-75
2023/06/24 12:52:14;;;;;;;5.32;2.70;;;;;;;;;;4968401;28;20055;-74
2023/06/24 12:54:45;;;;;;;9.52;2.72;;;;;;;;;;4968392;28;20054;-75
2023/06/24 12:57:16;;;;;;;13.20;2.80;;;;;;;;;;4968209;28;20051;-75
2023/06/24 12:59:45;;;;;;;8.10;4.18;;;;;;;;;;4968424;28;20042;-74
2023/06/24 13:02:16;;;;;;;7.35;3.25;;;;;;;;;;4967754;28;20418;-76
2023/06/24 13:04:47;;;;;;;6.28;2.63;;;;;;;;;;4968711;28;20058;-74
2023/06/24 13:07:18;;;;;;;5.63;2.53;;;;;;;;;;4966945;28;20046;-76
2023/06/24 13:09:48;;;;;;;7.35;2.75;;;;;;;;;;4967600;28;20073;-75
2023/06/24 13:12:18;;;;;;;5.55;2.80;;;;;;;;;;4967277;28;20621;-79
2023/06/24 13:14:48;;;;;;;4.97;2.42;;;;;;;;;;4967622;28;20051;-74
2023/06/24 13:17:20;;;;;;;13.18;2.17;;;;;;;;;;4966971;28;20051;-74
2023/06/24 13:19:50;;;;;;;9.25;2.75;;;;;;;;;;4967893;28;20417;-75
2023/06/24 13:22:22;;;;;;;9.82;2.67;;;;;;;;;;4967210;28;20039;-75
2023/06/24 13:24:52;;;;;;;15.55;4.18;;;;;;;;;;4967755;28;20418;-75
2023/06/24 13:27:22;;;;;;;6.05;2.28;;;;;;;;;;4965530;28;20050;-75
2023/06/24 13:29:53;;;;;;;6.70;2.70;;;;;;;;;;4967438;28;20058;-75
2023/06/24 13:32:24;;;;;;;7.28;2.45;;;;;;;;;;4967496;28;20074;-76
2023/06/24 13:34:55;;;;;;;4.13;2.25;;;;;;;;;;4966800;28;20451;-77
2023/06/24 13:37:25;;;;;;;6.63;2.13;;;;;;;;;;4967617;28;20058;-76
2023/06/24 13:39:56;;;;;;;4.72;2.00;;;;;;;;;;4966465;28;20074;-75
2023/06/24 13:42:27;;;;;;;7.63;2.42;;;;;;;;;;4967887;28;20066;-74
2023/06/24 13:44:57;;;;;;;5.25;2.10;;;;;;;;;;4967919;28;20050;-75
2023/06/24 13:47:28;;;;;;;2.40;1.50;;;;;;;;;;4967410;28;20047;-75
2023/06/24 13:50:00;;;;;;;4.20;1.58;;;;;;;;;;4968195;28;20043;-75
2023/06/24 13:52:30;;;;;;;2.75;1.50;;;;;;;;;;4968879;28;20050;-79
2023/06/24 13:55:00;;;;;;;3.00;1.38;;;;;;;;;;4967934;28;20047;-76
2023/06/24 13:57:31;;;;;;;2.33;1.20;;;;;;;;;;4968944;28;20521;-77
2023/06/24 14:00:02;;;;;;;1.90;1.10;;;;;;;;;;4968844;28;20058;-76
2023/06/24 14:02:40;;;;;;;1.73;1.40;;;;;;;;;;4968079;28;20059;-76
2023/06/24 14:05:11;;;;;;;2.30;1.13;;;;;;;;;;4967579;28;20054;-75
2023/06/24 14:07:41;;;;;;;2.63;1.23;;;;;;;;;;4966989;28;20043;-76
2023/06/24 14:10:11;;;;;;;2.05;1.25;;;;;;;;;;4966321;28;20058;-75
2023/06/24 14:12:42;;;;;;;4.35;1.27;;;;;;;;;;4966946;28;20050;-77
2023/06/24 14:15:12;;;;;;;3.88;1.20;;;;;;;;;;4966874;28;20055;-75
2023/06/24 14:17:42;;;;;;;4.85;2.03;;;;;;;;;;4965835;28;20073;-76
2023/06/24 14:20:13;;;;;;;3.97;1.80;;;;;;;;;;4966471;28;20050;-76
2023/06/24 14:22:45;;;;;;;3.90;1.42;;;;;;;;;;4964859;28;20053;-77
2023/06/24 14:25:16;;;;;;;4.82;1.20;;;;;;;;;;4964659;28;20046;-75
2023/06/24 14:27:46;;;;;;;2.00;1.45;;;;;;;;;;4965969;28;20419;-74
2023/06/24 14:30:16;;;;;;;2.15;1.05;;;;;;;;;;4965475;28;20059;-75
2023/06/24 14:32:46;;;;;;;1.63;1.33;;;;;;;;;;4967272;28;20411;-73
2023/06/24 14:35:17;;;;;;;2.70;1.20;;;;;;;;;;4963885;28;20051;-75
2023/06/24 14:37:51;;;;;;;3.22;1.65;;;;;;;;;;4966877;28;20410;-75
2023/06/24 14:40:52;;;;;;;7.45;1.50;;;;;;;;;;4962846;28;20410;-77
2023/06/24 14:43:22;;;;;;;5.20;1.15;;;;;;;;;;4965977;28;20047;-75
2023/06/24 14:45:57;;;;;;;2.22;0.93;;;;;;;;;;4966109;28;20046;-75
2023/06/24 14:48:30;;;;;;;4.43;1.30;;;;;;;;;;4965151;28;20061;-77
2023/06/24 14:51:09;;;;;;;5.60;1.38;;;;;;;;;;4965482;28;20070;-77
2023/06/24 14:53:42;;;;;;;3.55;2.00;;;;;;;;;;4965290;28;20051;-77
2023/06/24 14:56:13;;;;;;;2.08;1.27;;;;;;;;;;4965960;28;20042;-77
2023/06/24 14:58:45;;;;;;;4.53;1.23;;;;;;;;;;4966525;28;20086;-77
2023/06/24 15:01:17;;;;;;;3.78;1.27;;;;;;;;;;4966123;28;20055;-77
2023/06/24 15:03:47;;;;;;;2.83;1.20;;;;;;;;;;4966155;28;20521;-77
2023/06/24 15:06:19;;;;;;;4.25;1.30;;;;;;;;;;4966392;28;20065;-78
2023/06/24 15:08:50;;;;;;;2.95;1.25;;;;;;;;;;4965483;28;20051;-77
2023/06/24 15:11:21;;;;;;;4.22;1.42;;;;;;;;;;4962097;28;20070;-77
2023/06/24 15:13:51;;;;;;;5.60;1.25;;;;;;;;;;4962227;28;20517;-77
2023/06/24 15:16:22;;;;;;;8.48;1.52;;;;;;;;;;4963942;28;20051;-77